createdAt,value
2018-05-04T00:00:54.772Z,68.60
2018-05-04T00:03:22.233Z,68.50
2018-05-04T00:05:49.683Z,68.60
2018-05-04T00:08:17.309Z,68.30
2018-05-04T00:10:44.768Z,68.50
2018-05-04T00:13:12.206Z,68.30
2018-05-04T00:15:39.654Z,68.60
2018-05-04T00:18:07.104Z,67.60
2018-05-04T00:20:35.321Z,67.30
2018-05-04T00:23:02.765Z,67.20
2018-05-04T00:25:30.228Z,67.20
2018-05-04T00:27:57.675Z,67.10
2018-05-04T00:30:25.135Z,66.60
2018-05-04T00:32:52.578Z,66.20
2018-05-04T00:35:20.029Z,66.10
2018-05-04T00:37:47.475Z,66.00
2018-05-04T00:40:15.700Z,65.50
2018-05-04T00:42:43.138Z,65.50
2018-05-04T00:45:10.595Z,65.80
2018-05-04T00:47:38.040Z,65.80
2018-05-04T00:50:05.500Z,65.90
2018-05-04T00:52:32.966Z,65.70
2018-05-04T00:55:00.405Z,65.30
2018-05-04T00:57:27.865Z,66.30
2018-05-04T00:59:55.316Z,65.80
2018-05-04T01:02:22.773Z,66.30
2018-05-04T01:04:50.227Z,66.70
2018-05-04T01:07:17.675Z,66.40
2018-05-04T01:09:45.900Z,66.50
2018-05-04T01:12:13.346Z,66.40
2018-05-04T01:14:40.808Z,66.20
2018-05-04T01:17:08.260Z,66.30
2018-05-04T01:19:35.712Z,66.00
2018-05-04T01:22:03.160Z,66.10
2018-05-04T01:24:30.598Z,65.90
2018-05-04T01:26:58.063Z,66.10
2018-05-04T01:29:25.507Z,66.20
2018-05-04T01:31:53.723Z,66.00
2018-05-04T01:34:21.173Z,66.00
2018-05-04T01:36:48.623Z,65.70
2018-05-04T01:39:16.071Z,65.80
2018-05-04T01:41:43.530Z,65.80
2018-05-04T01:44:10.967Z,66.10
2018-05-04T01:46:39.185Z,65.90
2018-05-04T01:49:06.627Z,65.90
2018-05-04T01:51:34.084Z,65.60
2018-05-04T01:54:01.533Z,65.80
2018-05-04T01:56:28.975Z,65.90
2018-05-04T01:58:56.433Z,66.20
2018-05-04T02:01:23.867Z,66.80
2018-05-04T02:03:52.083Z,66.30
2018-05-04T02:06:20.312Z,65.80
2018-05-04T02:08:48.523Z,65.80
2018-05-04T02:11:15.979Z,65.80
2018-05-04T02:13:43.427Z,65.70
2018-05-04T02:16:10.888Z,66.00
2018-05-04T02:18:38.347Z,65.80
2018-05-04T02:21:05.795Z,65.50
2018-05-04T02:23:33.243Z,65.50
2018-05-04T02:26:01.476Z,65.40
2018-05-04T02:28:28.923Z,65.40
2018-05-04T02:30:56.395Z,65.50
2018-05-04T02:33:23.846Z,65.50
2018-05-04T02:35:51.307Z,65.20
2018-05-04T02:38:18.759Z,65.40
2018-05-04T02:40:46.216Z,65.70
2018-05-04T02:43:13.669Z,65.50
2018-05-04T02:45:41.121Z,65.80
2018-05-04T02:48:08.576Z,66.20
2018-05-04T02:50:36.037Z,65.90
2018-05-04T02:53:03.489Z,66.50
2018-05-04T02:55:30.962Z,66.20
2018-05-04T02:57:58.393Z,66.20
2018-05-04T03:00:25.839Z,66.20
2018-05-04T03:02:53.289Z,66.20
2018-05-04T03:05:20.748Z,66.40
2018-05-04T03:07:48.205Z,66.40
2018-05-04T03:10:15.656Z,66.40
2018-05-04T03:12:43.095Z,66.10
2018-05-04T03:15:11.315Z,66.20
2018-05-04T03:17:38.776Z,66.20
2018-05-04T03:20:06.223Z,66.20
2018-05-04T03:22:33.682Z,66.00
2018-05-04T03:25:01.145Z,66.50
2018-05-04T03:27:28.599Z,66.30
2018-05-04T03:29:56.052Z,66.60
2018-05-04T03:32:23.516Z,66.50
2018-05-04T03:34:50.961Z,66.40
2018-05-04T03:37:19.187Z,66.60
2018-05-04T03:39:47.448Z,66.60
2018-05-04T03:42:14.916Z,66.70
2018-05-04T03:44:42.364Z,67.00
2018-05-04T03:47:09.848Z,67.00
2018-05-04T03:49:38.069Z,67.00
2018-05-04T03:52:05.613Z,66.90
2018-05-04T03:54:32.979Z,66.80
2018-05-04T03:57:12.278Z,66.90
2018-05-04T03:59:52.432Z,67.00
2018-05-04T04:02:31.755Z,66.90
2018-05-04T04:04:59.167Z,67.30
2018-05-04T04:07:26.619Z,67.40
2018-05-04T04:09:54.068Z,67.50
2018-05-04T04:12:21.520Z,67.50
2018-05-04T04:14:48.964Z,67.40
2018-05-04T04:17:16.420Z,67.70
2018-05-04T04:19:43.877Z,67.80
2018-05-04T04:22:11.349Z,67.90
2018-05-04T04:24:38.802Z,68.20
2018-05-04T04:27:06.263Z,68.30
2018-05-04T04:29:33.716Z,68.30
2018-05-04T04:32:01.173Z,68.50
2018-05-04T04:34:28.624Z,69.00
2018-05-04T04:36:56.082Z,69.40
2018-05-04T04:39:23.516Z,69.70
2018-05-04T04:41:50.972Z,70.70
2018-05-04T04:44:19.183Z,71.80
2018-05-04T04:46:46.651Z,71.80
2018-05-04T04:49:14.104Z,72.40
2018-05-04T04:51:41.579Z,72.20
2018-05-04T04:54:09.024Z,72.60
2018-05-04T04:56:36.479Z,72.60
2018-05-04T04:59:03.947Z,72.90
2018-05-04T05:01:31.408Z,73.10
2018-05-04T05:03:58.860Z,72.90
2018-05-04T05:06:26.310Z,72.80
2018-05-04T05:08:53.771Z,72.50
2018-05-04T05:11:21.219Z,72.20
2018-05-04T05:13:48.684Z,72.10
2018-05-04T05:16:16.130Z,72.00
2018-05-04T05:18:43.594Z,72.70
2018-05-04T05:21:10.997Z,72.30
2018-05-04T05:23:38.504Z,72.00
2018-05-04T05:26:05.944Z,72.00
2018-05-04T05:28:34.179Z,71.80
2018-05-04T05:31:02.394Z,71.70
2018-05-04T05:33:29.861Z,71.70
2018-05-04T05:35:57.308Z,72.10
2018-05-04T05:38:24.777Z,71.80
2018-05-04T05:40:52.227Z,71.50
2018-05-04T05:43:19.739Z,71.20
2018-05-04T05:45:47.956Z,71.40
2018-05-04T05:48:15.415Z,71.40
2018-05-04T05:50:42.867Z,71.20
2018-05-04T05:53:10.329Z,71.50
2018-05-04T05:55:37.780Z,71.50
2018-05-04T05:58:05.295Z,71.50
2018-05-04T06:00:32.711Z,71.30
2018-05-04T06:03:00.169Z,71.30
2018-05-04T06:05:27.636Z,70.90
2018-05-04T06:07:55.101Z,70.50
2018-05-04T06:10:22.564Z,69.80
2018-05-04T06:12:50.031Z,69.70
2018-05-04T06:15:17.494Z,69.90
2018-05-04T06:17:44.956Z,70.10
2018-05-04T06:20:13.184Z,69.60
2018-05-04T06:22:40.641Z,69.60
2018-05-04T06:25:08.179Z,69.50
2018-05-04T06:27:35.567Z,69.40
2018-05-04T06:30:03.068Z,69.40
2018-05-04T06:32:31.298Z,69.10
2018-05-04T06:34:58.748Z,69.10
2018-05-04T06:37:26.278Z,69.00
2018-05-04T06:39:53.758Z,68.40
2018-05-04T06:42:21.212Z,68.20
2018-05-04T06:44:48.669Z,68.30
2018-05-04T06:47:16.119Z,68.00
2018-05-04T06:49:43.596Z,68.10
2018-05-04T06:52:11.057Z,68.50
2018-05-04T06:54:38.733Z,67.90
2018-05-04T06:57:06.196Z,68.60
2018-05-04T06:59:33.665Z,67.50
2018-05-04T07:02:01.159Z,68.10
2018-05-04T07:04:28.628Z,67.90
2018-05-04T07:06:56.093Z,68.50
2018-05-04T07:09:23.555Z,69.00
2018-05-04T07:11:51.013Z,68.90
2018-05-04T07:14:18.489Z,69.10
2018-05-04T07:16:45.947Z,68.20
2018-05-04T07:19:13.419Z,68.30
2018-05-04T07:21:40.893Z,68.30
2018-05-04T07:24:09.141Z,68.00
2018-05-04T07:26:36.600Z,68.00
2018-05-04T07:29:04.072Z,68.00
2018-05-04T07:31:32.288Z,67.80
2018-05-04T07:33:59.769Z,67.80
2018-05-04T07:36:27.225Z,67.40
2018-05-04T07:38:54.684Z,66.90
2018-05-04T07:41:22.132Z,66.60
2018-05-04T07:43:49.592Z,65.20
2018-05-04T07:46:17.089Z,65.30
2018-05-04T07:48:44.534Z,65.40
2018-05-04T07:51:11.975Z,64.60
2018-05-04T07:53:39.435Z,63.80
2018-05-04T07:56:06.896Z,63.80
2018-05-04T07:58:34.364Z,64.00
2018-05-04T08:01:01.809Z,63.30
2018-05-04T08:03:29.277Z,62.50
2018-05-04T08:05:56.728Z,61.30
2018-05-04T08:08:24.198Z,63.50
2018-05-04T08:10:52.558Z,63.80
2018-05-04T08:13:21.467Z,63.90
2018-05-04T08:15:49.704Z,63.00
2018-05-04T08:18:17.168Z,62.90
2018-05-04T08:20:44.624Z,64.30
2018-05-04T08:23:12.095Z,64.60
2018-05-04T08:25:39.560Z,65.20
2018-05-04T08:28:07.008Z,65.80
2018-05-04T08:30:34.473Z,65.30
2018-05-04T08:33:01.939Z,65.00
2018-05-04T08:35:30.202Z,65.20
2018-05-04T08:37:57.629Z,65.20
2018-05-04T08:40:25.091Z,65.70
2018-05-04T08:42:52.598Z,66.30
2018-05-04T08:45:20.008Z,66.50
2018-05-04T08:47:47.453Z,67.00
2018-05-04T08:50:14.903Z,66.50
2018-05-04T08:52:42.368Z,66.20
2018-05-04T08:55:09.824Z,66.80
2018-05-04T08:57:37.288Z,67.20
2018-05-04T09:00:04.745Z,67.70
2018-05-04T09:02:32.201Z,67.90
2018-05-04T09:04:59.660Z,68.00
2018-05-04T09:07:27.123Z,68.00
2018-05-04T09:09:54.601Z,68.20
2018-05-04T09:12:22.052Z,68.50
2018-05-04T09:14:49.528Z,68.60
2018-05-04T09:17:16.972Z,69.00
2018-05-04T09:19:44.513Z,68.80
2018-05-04T09:22:11.881Z,69.30
2018-05-04T09:24:39.343Z,69.60
2018-05-04T09:27:06.796Z,69.60
2018-05-04T09:29:34.256Z,69.60
2018-05-04T09:32:01.709Z,69.40
2018-05-04T09:34:29.180Z,68.90
2018-05-04T09:36:56.624Z,68.20
2018-05-04T09:39:24.092Z,69.30
2018-05-04T09:41:51.540Z,69.50
2018-05-04T09:44:18.996Z,69.80
2018-05-04T09:46:46.452Z,69.80
2018-05-04T09:49:14.040Z,70.10
2018-05-04T09:51:42.248Z,70.90
2018-05-04T09:54:09.779Z,70.90
2018-05-04T09:56:38.004Z,71.00
2018-05-04T09:59:05.465Z,70.90
2018-05-04T10:01:32.926Z,71.00
2018-05-04T10:04:00.393Z,71.30
2018-05-04T10:06:27.843Z,71.50
2018-05-04T10:08:55.313Z,71.40
2018-05-04T10:11:22.772Z,71.20
2018-05-04T10:13:50.301Z,70.90
2018-05-04T10:16:17.753Z,70.10
2018-05-04T10:18:45.217Z,70.10
2018-05-04T10:21:12.667Z,69.80
2018-05-04T10:23:40.165Z,69.40
2018-05-04T10:26:07.624Z,69.00
2018-05-04T10:28:35.080Z,68.30
2018-05-04T10:31:02.531Z,68.40
2018-05-04T10:33:29.977Z,68.80
2018-05-04T10:35:57.441Z,68.80
2018-05-04T10:38:24.970Z,69.80
2018-05-04T10:40:52.344Z,70.20
2018-05-04T10:43:19.804Z,70.60
2018-05-04T10:45:47.274Z,70.80
2018-05-04T10:48:14.720Z,70.70
2018-05-04T10:50:42.340Z,70.40
2018-05-04T10:53:09.780Z,70.00
2018-05-04T10:55:37.251Z,69.90
2018-05-04T10:58:04.692Z,69.70
2018-05-04T11:00:32.148Z,69.50
2018-05-04T11:02:59.596Z,69.40
2018-05-04T11:05:27.915Z,67.60
2018-05-04T11:07:55.306Z,67.60
2018-05-04T11:10:22.764Z,67.10
2018-05-04T11:12:50.208Z,66.70
2018-05-04T11:15:17.676Z,66.20
2018-05-04T11:17:45.125Z,65.80
2018-05-04T11:20:12.673Z,66.10
2018-05-04T11:22:42.018Z,65.70
2018-05-04T11:25:09.475Z,65.60
2018-05-04T11:27:37.692Z,67.20
2018-05-04T11:30:05.169Z,67.20
2018-05-04T11:32:32.617Z,67.20
2018-05-04T11:35:00.091Z,66.50
2018-05-04T11:37:27.539Z,67.50
2018-05-04T11:39:55.010Z,67.30
2018-05-04T11:42:22.473Z,67.40
2018-05-04T11:44:49.926Z,66.70
2018-05-04T11:47:17.372Z,66.70
2018-05-04T11:49:44.828Z,66.40
2018-05-04T11:52:12.325Z,66.70
2018-05-04T11:54:39.789Z,66.60
2018-05-04T11:57:07.232Z,66.50
2018-05-04T11:59:35.461Z,66.70
2018-05-04T12:02:02.907Z,66.70
2018-05-04T12:04:30.373Z,66.60
2018-05-04T12:06:57.822Z,65.80
2018-05-04T12:09:25.284Z,65.70
2018-05-04T12:11:52.748Z,65.40
2018-05-04T12:14:20.226Z,64.70
2018-05-04T12:16:47.680Z,64.20
2018-05-04T12:19:15.130Z,64.30
2018-05-04T12:21:42.596Z,64.40
2018-05-04T12:24:10.045Z,64.90
2018-05-04T12:26:37.509Z,63.90
2018-05-04T12:29:04.964Z,64.30
2018-05-04T12:31:32.425Z,63.40
2018-05-04T12:33:59.874Z,63.40
2018-05-04T12:36:27.332Z,62.40
2018-05-04T12:38:54.852Z,62.20
2018-05-04T12:41:22.260Z,62.90
2018-05-04T12:43:50.476Z,64.00
2018-05-04T12:46:17.937Z,63.90
2018-05-04T12:48:45.392Z,64.70
2018-05-04T12:51:12.857Z,64.80
2018-05-04T12:53:40.395Z,65.20
2018-05-04T12:56:07.763Z,65.20
2018-05-04T12:58:35.250Z,65.30
2018-05-04T13:01:02.716Z,65.00
2018-05-04T13:03:30.179Z,65.30
2018-05-04T13:05:57.633Z,65.30
2018-05-04T13:08:25.084Z,65.00
2018-05-04T13:10:52.564Z,65.00
2018-05-04T13:13:21.363Z,64.50
2018-05-04T13:15:49.590Z,64.40
2018-05-04T13:18:17.040Z,64.40
2018-05-04T13:20:44.500Z,63.30
2018-05-04T13:23:11.964Z,61.10
2018-05-04T13:25:39.423Z,60.70
2018-05-04T13:28:06.876Z,59.70
2018-05-04T13:30:34.358Z,59.10
2018-05-04T13:33:01.821Z,58.30
2018-05-04T13:35:29.283Z,59.50
2018-05-04T13:37:57.512Z,60.60
2018-05-04T13:40:24.977Z,60.60
2018-05-04T13:42:52.424Z,60.70
2018-05-04T13:45:19.888Z,60.60
2018-05-04T13:47:47.344Z,60.40
2018-05-04T13:50:14.808Z,60.50
2018-05-04T13:52:42.265Z,60.40
2018-05-04T13:55:09.737Z,61.50
2018-05-04T13:57:37.196Z,61.10
2018-05-04T14:00:04.664Z,60.50
2018-05-04T14:02:32.113Z,60.70
2018-05-04T14:04:59.579Z,60.60
2018-05-04T14:07:27.032Z,61.10
2018-05-04T14:09:54.484Z,60.00
2018-05-04T14:12:21.940Z,59.60
2018-05-04T14:14:49.399Z,58.00
2018-05-04T14:17:16.924Z,55.90
2018-05-04T14:19:44.372Z,55.30
2018-05-04T14:22:11.833Z,55.00
2018-05-04T14:24:39.289Z,54.40
2018-05-04T14:27:06.763Z,54.50
2018-05-04T14:29:34.203Z,53.00
2018-05-04T14:32:01.669Z,50.90
2018-05-04T14:34:29.137Z,50.70
2018-05-04T14:36:56.617Z,50.50
2018-05-04T14:39:24.153Z,50.60
2018-05-04T14:41:51.621Z,50.40
2018-05-04T14:44:19.126Z,49.00
2018-05-04T14:46:49.937Z,49.40
2018-05-04T14:49:18.175Z,50.20
2018-05-04T14:51:46.680Z,50.10
2018-05-04T14:54:14.143Z,50.40
2018-05-04T14:56:41.616Z,50.00
2018-05-04T14:59:10.072Z,50.50
2018-05-04T15:01:37.590Z,50.40
2018-05-04T15:04:05.919Z,50.60
2018-05-04T15:06:34.236Z,52.60
2018-05-04T15:09:02.106Z,52.60
2018-05-04T15:11:29.791Z,53.00
2018-05-04T15:13:57.421Z,53.40
2018-05-04T15:16:24.921Z,52.70
2018-05-04T15:18:52.377Z,52.80
2018-05-04T15:21:20.815Z,52.00
2018-05-04T15:23:48.346Z,52.00
2018-05-04T15:26:16.663Z,54.30
2018-05-04T15:28:44.175Z,54.30
2018-05-04T15:31:12.508Z,53.70
2018-05-04T15:33:39.960Z,53.70
2018-05-04T15:36:08.240Z,54.60
2018-05-04T15:38:35.732Z,54.60
2018-05-04T15:41:03.366Z,55.70
2018-05-04T15:43:30.907Z,56.10
2018-05-04T15:45:58.457Z,56.70
2018-05-04T15:48:31.570Z,57.00
2018-05-04T15:51:04.778Z,57.20
2018-05-04T15:53:32.240Z,56.40
2018-05-04T15:55:59.715Z,56.60
2018-05-04T15:58:27.192Z,57.40
2018-05-04T16:00:55.448Z,57.60
2018-05-04T16:03:22.922Z,57.50
2018-05-04T16:05:51.165Z,58.30
2018-05-04T16:08:18.730Z,58.30
2018-05-04T16:10:46.220Z,58.50
2018-05-04T16:13:14.480Z,58.30
2018-05-04T16:15:42.226Z,58.30
2018-05-04T16:18:09.701Z,58.80
2018-05-04T16:20:38.126Z,58.70
2018-05-04T16:23:05.633Z,58.90
2018-05-04T16:25:33.935Z,59.10
2018-05-04T16:28:01.494Z,59.00
2018-05-04T16:30:30.922Z,59.10
2018-05-04T16:32:58.383Z,58.70
2018-05-04T16:35:25.881Z,58.00
2018-05-04T16:37:53.345Z,58.30
2018-05-04T16:40:20.819Z,58.70
2018-05-04T16:42:49.082Z,59.30
2018-05-04T16:45:16.553Z,59.30
2018-05-04T16:47:50.579Z,59.20
2018-05-04T16:50:18.059Z,59.20
2018-05-04T16:52:45.541Z,59.80
2018-05-04T16:55:13.162Z,60.10
2018-05-04T16:57:41.412Z,60.50
2018-05-04T17:00:09.653Z,60.70
2018-05-04T17:02:37.134Z,60.60
2018-05-04T17:05:04.611Z,61.70
2018-05-04T17:07:32.080Z,61.20
2018-05-04T17:09:59.538Z,60.90
2018-05-04T17:12:27.017Z,60.80
2018-05-04T17:14:54.479Z,61.10
2018-05-04T17:17:21.954Z,61.60
2018-05-04T17:19:49.408Z,61.50
2018-05-04T17:22:16.914Z,62.00
2018-05-04T17:24:45.137Z,63.10
2018-05-04T17:27:12.607Z,63.00
2018-05-04T17:29:40.088Z,63.10
2018-05-04T17:32:08.351Z,63.60
2018-05-04T17:34:35.860Z,63.60
2018-05-04T17:37:03.352Z,63.50
2018-05-04T17:39:30.797Z,64.00
2018-05-04T17:41:58.284Z,64.40
2018-05-04T17:44:25.752Z,65.40
2018-05-04T17:46:53.214Z,65.80
2018-05-04T17:49:21.446Z,65.70
2018-05-04T17:51:52.069Z,65.70
2018-05-04T17:54:19.538Z,66.10
2018-05-04T17:56:48.300Z,66.40
2018-05-04T17:59:15.753Z,67.00
2018-05-04T18:01:43.224Z,67.10
2018-05-04T18:04:10.676Z,67.50
2018-05-04T18:06:38.142Z,67.90
2018-05-04T18:09:05.609Z,67.50
2018-05-04T18:11:33.083Z,67.80
2018-05-04T18:14:00.548Z,67.90
2018-05-04T18:16:28.000Z,67.70
2018-05-04T18:18:55.505Z,67.80
2018-05-04T18:21:22.970Z,68.10
2018-05-04T18:23:50.428Z,68.40
2018-05-04T18:26:17.894Z,68.90
2018-05-04T18:28:46.120Z,69.70
2018-05-04T18:31:14.372Z,69.40
2018-05-04T18:33:41.836Z,69.30
2018-05-04T18:36:09.299Z,70.00
2018-05-04T18:38:36.756Z,70.20
2018-05-04T18:41:04.220Z,70.70
2018-05-04T18:43:32.449Z,70.90
2018-05-04T18:45:59.901Z,70.90
2018-05-04T18:48:28.134Z,72.20
2018-05-04T18:50:56.411Z,72.70
2018-05-04T18:53:23.870Z,72.60
2018-05-04T18:55:52.096Z,73.00
2018-05-04T18:58:19.560Z,73.00
2018-05-04T19:00:47.024Z,73.10
2018-05-04T19:03:20.223Z,73.40
2018-05-04T19:05:47.685Z,73.50
2018-05-04T19:08:15.147Z,73.40
2018-05-04T19:10:42.609Z,73.60
2018-05-04T19:13:10.081Z,73.60
2018-05-04T19:15:38.295Z,72.70
2018-05-04T19:18:05.809Z,72.70
2018-05-04T19:20:35.069Z,72.30
2018-05-04T19:23:02.505Z,72.30
2018-05-04T19:25:29.965Z,72.20
2018-05-04T19:27:57.429Z,72.10
2018-05-04T19:30:24.895Z,72.20
2018-05-04T19:32:52.360Z,72.10
2018-05-04T19:35:19.851Z,71.80
2018-05-04T19:37:47.305Z,71.70
2018-05-04T19:40:14.754Z,71.90
2018-05-04T19:42:42.219Z,71.70
2018-05-04T19:45:10.440Z,71.80
2018-05-04T19:47:37.910Z,71.80
2018-05-04T19:50:05.365Z,71.30
2018-05-04T19:52:32.847Z,71.30
2018-05-04T19:55:00.304Z,71.40
2018-05-04T19:57:27.759Z,71.50
2018-05-04T19:59:55.219Z,71.10
2018-05-04T20:02:22.684Z,70.80
2018-05-04T20:04:50.141Z,70.80
2018-05-04T20:07:17.601Z,70.90
2018-05-04T20:09:45.043Z,70.80
2018-05-04T20:12:12.496Z,70.90
2018-05-04T20:14:39.952Z,71.10
2018-05-04T20:17:07.399Z,71.10
2018-05-04T20:19:34.871Z,71.40
2018-05-04T20:22:02.325Z,71.10
2018-05-04T20:24:29.790Z,71.20
2018-05-04T20:26:57.230Z,71.40
2018-05-04T20:29:24.688Z,71.40
2018-05-04T20:31:52.130Z,71.20
2018-05-04T20:34:19.588Z,71.50
2018-05-04T20:36:47.034Z,71.60
2018-05-04T20:39:14.492Z,71.90
2018-05-04T20:41:41.943Z,72.20
2018-05-04T20:44:09.424Z,72.40
2018-05-04T20:46:36.824Z,72.90
2018-05-04T20:49:05.048Z,73.50
2018-05-04T20:51:32.499Z,73.40
2018-05-04T20:53:59.949Z,73.10
2018-05-04T20:56:27.396Z,72.90
2018-05-04T20:58:54.925Z,72.90
2018-05-04T21:01:22.301Z,72.60
2018-05-04T21:03:49.755Z,72.80
2018-05-04T21:06:17.215Z,72.80
2018-05-04T21:08:45.427Z,73.00
2018-05-04T21:11:12.867Z,72.90
2018-05-04T21:13:40.319Z,72.80
2018-05-04T21:16:07.779Z,73.10
2018-05-04T21:18:35.238Z,73.40
2018-05-04T21:21:02.681Z,73.50
2018-05-04T21:23:30.137Z,73.70
2018-05-04T21:25:57.585Z,73.60
2018-05-04T21:28:25.039Z,73.50
2018-05-04T21:30:52.482Z,73.60
2018-05-04T21:33:20.703Z,73.70
2018-05-04T21:35:48.230Z,73.60
2018-05-04T21:38:15.607Z,73.60
2018-05-04T21:40:43.062Z,73.30
2018-05-04T21:43:10.515Z,73.20
2018-05-04T21:45:37.972Z,73.60
2018-05-04T21:48:05.428Z,73.50
2018-05-04T21:50:32.863Z,75.20
2018-05-04T21:53:01.091Z,73.50
2018-05-04T21:55:28.527Z,74.10
2018-05-04T21:57:55.996Z,73.20
2018-05-04T22:00:23.443Z,73.60
2018-05-04T22:02:50.892Z,73.60
2018-05-04T22:05:18.349Z,74.10
2018-05-04T22:07:45.833Z,73.50
2018-05-04T22:10:13.293Z,73.60
2018-05-04T22:12:40.760Z,73.50
2018-05-04T22:15:08.233Z,73.30
2018-05-04T22:17:35.707Z,73.50
2018-05-04T22:20:03.939Z,73.50
2018-05-04T22:22:31.392Z,73.50
2018-05-04T22:24:58.904Z,73.60
2018-05-04T22:27:26.400Z,73.40
2018-05-04T22:29:53.897Z,73.40
2018-05-04T22:32:22.142Z,73.20
2018-05-04T22:34:49.655Z,73.20
2018-05-04T22:37:17.154Z,73.40
2018-05-04T22:39:44.663Z,73.60
2018-05-04T22:42:12.143Z,73.60
2018-05-04T22:44:39.675Z,74.10
2018-05-04T22:47:07.171Z,74.30
2018-05-04T22:49:34.675Z,74.50
2018-05-04T22:52:02.933Z,74.90
2018-05-04T22:54:30.439Z,74.90
2018-05-04T22:56:57.898Z,74.90
2018-05-04T22:59:25.466Z,75.00
2018-05-04T23:01:53.659Z,74.80
2018-05-04T23:04:21.124Z,74.80
2018-05-04T23:06:48.589Z,74.60
2018-05-04T23:09:16.060Z,74.60
2018-05-04T23:11:43.515Z,74.60
2018-05-04T23:14:10.977Z,74.80
2018-05-04T23:16:38.452Z,74.50
2018-05-04T23:19:06.691Z,74.60
2018-05-04T23:21:34.146Z,74.50
2018-05-04T23:24:01.631Z,74.60
2018-05-04T23:26:29.079Z,74.60
2018-05-04T23:28:56.556Z,74.40
2018-05-04T23:31:24.780Z,74.70
2018-05-04T23:33:52.247Z,74.70
2018-05-04T23:36:19.715Z,74.80
2018-05-04T23:38:47.187Z,74.50
2018-05-04T23:41:14.668Z,74.80
2018-05-04T23:43:42.895Z,74.70
2018-05-04T23:46:10.352Z,74.70
2018-05-04T23:48:37.824Z,74.80
2018-05-04T23:51:05.276Z,75.00
2018-05-04T23:53:32.737Z,75.20
2018-05-04T23:56:00.202Z,75.00
2018-05-04T23:58:28.431Z,75.20
